Startpagina
METAR-TAF:

METAR-TAF

Vliegvelden :

Vliegbasis Deelen

Arnhem, Nederland

breedte: 52-04N, lengte: 005-53E, hoogte: 48 m

Actueel weer

Dit bericht is 19 minuten geleden gemaakt, om 22:25 UTC
Wind 1 kt uit variabele richting
Temperatuur -2°C
Vochtigheid 100%
Druk 1002 hPa
Zicht 10 km of meer
Weinig wolken lager dan 100 ft
Gebroken wolken op 3600 ft
Gebroken wolken op 4100 ft

METAR: EHDL 282225Z AUTO VRB01KT 9999 FEW000 BKN036 BKN041 M02/M02 Q1002 BLU

Tijdstip: 23:44 (22:44 UTC)


TAF: ontbreekt

Waarnemingen en weersverwachtingen van meer dan 4000 vliegvelden (METAR en TAF).

De beschikbare stations zijn de gele en rode punten op de kaart.

Ga met uw muis naar het station om de naam te zien.

Klik dan om waarnemingen en weersverwachtingen te zien.

kaart wijzigen: klik op de groene knoppen met een zwart kruis om in te zoomen, op de groene knop met een streepje om uit te zoomen of op de groene pijlen voor aangrenzende kaarten.


METAR-TAF: